Share

Noojee Slivar, Victoria

Neerim East, Australia (IVICTORI176) Elev 1125 ft | 37.95 °S, 146.00 °E | Change Station

Current weather conditions updated 9 seconds ago

Clear
Clear
63.3 °F
Feels Like 63.3 °F
N
1.4
Wind Variable Wind from NE
Gusts 2.3 mph
Sunrise 6:44 AM
Sunset 5:46 PM
Moon Waning Gibbous

Today is forecast to be Warmer than yesterday.

Pressure 30.12 in
Visibility 3.7 miles
Clouds
Dew Point 55 °F
Humidity 75%
Rainfall 0.00 in
Snow Depth Not available.
UV 4.1 out of 16
Pollen Not available.
Air Quality Not available.
Flu Activity Not available.
SPECI YMEN 170027Z AUTO 30003KT 6000 // NCD 19/10 Q1020

More Conditions Fewer Conditions

Pressure 30.12 in
Visibility 3.7 miles
Clouds
Dew Point 55 °F
Humidity 75%
Rainfall 0.00 in
Snow Depth Not available.
UV 4.1 out of 16
Pollen Not available.
Air Quality Not available.
Flu Activity Not available.
SPECI YMEN 170027Z AUTO 30003KT 6000 // NCD 19/10 Q1020

More Conditions Fewer Conditions

10-Day Forecast

Almanac

Astronomy

Apr. 17, 2014 Rise Set
Actual Time 6:44 AM EST 5:46 PM EST
Civil Twilight 6:17 AM EST 6:13 PM EST
Nautical Twilight 5:46 AM EST 6:44 PM EST
Astronomical Twilight 5:16 AM EST 7:14 PM EST
Moon 7:06 PM EST 8:24 AM EST
Length of Visible Light 11h 56m
Length of Day
11h 02m
Tomorrow will be 2m 16s shorter.
Waning Gibbous, 97% of the Moon is Illuminated
Apr 16
Waning Gibbous
Apr 22
Last Quarter
Apr 29
New
May 6
First Quarter
May 14
Full

Yesterday's Extremes

Country Highs Country Lows

Community

  • symphony in blue....
    symphony in blue....
  • Dawn Surprise
    Dawn Surprise
  • Yucca delight
    Yucca delight
  • Sunset inside of the Ocean
    Sunset inside of the Ocean
  • Lunar eclipse 15 April 2014
    Lunar eclipse 15 April 2014

WunderPhotos

Upload Photos

1,701,768 photos uploaded!

WunderBlogs® & News

Nearby

Snow Depth

Not available.

Coastal Water Temperatures

Place Temperature
No Stations Reporting

Earthquake Activity

City Distance Mag. Time & Date
No recent earthquake activity has been reported nearby.
Minimum magnitude displayed is 2.5.

Nearby Weather Stations

Station Location Temp. Heat Index Dew Point Humidity Wind Precip. Elev Updated Type
Neerim East, Australia, Neerim East 63.3 °F - 55 °F 75% NE  at  1.4 mph 0.00 in / hr 1125 ft 10:58 AM EST Rapid Fire
Rokeby, Rokeby 64.2 °F - 55 °F 73% ESE  at  0.0 mph 0.00 in / hr 538 ft 10:53 AM EST Normal
Warragul 62.9 °F - 57 °F 80% East  at  1.0 mph 0.00 in / hr 433 ft 10:30 AM EST Normal
Drouin, Drouin 73.2 °F 77 °F 54 °F 51% NE  at  1.7 mph 0.00 in / hr 390 ft 10:58 AM EST Rapid Fire
Drouin (VK3GY), Drouin 64.1 °F - 56 °F 74% SSW  at  1.0 mph 0.00 in / hr 449 ft 10:50 AM EST Normal
Brintannia Creek, Wesburn 64.2 °F - 57 °F 78% WSW  at  0.0 mph 0.00 in / hr 640 ft 10:52 AM EST Normal

Show More Stations Show Fewer Stations

What do you think?

We're not finished. Please let us know what you like, what you don't like, and what you are still missing.